sensor_id;sensor_type;location;lat;lon;timestamp;P1;durP1;ratioP1;P2;durP2;ratioP2
2892;SDS011;1456;51.840;12.184;2022-08-07T00:01:04;0.80;;;0.80;;
2892;SDS011;1456;51.840;12.184;2022-08-07T00:03:32;0.70;;;0.70;;
2892;SDS011;1456;51.840;12.184;2022-08-07T00:05:58;0.80;;;0.80;;
2892;SDS011;1456;51.840;12.184;2022-08-07T00:08:24;0.97;;;0.97;;
2892;SDS011;1456;51.840;12.184;2022-08-07T00:10:50;1.17;;;1.07;;
2892;SDS011;1456;51.840;12.184;2022-08-07T00:13:17;0.70;;;0.70;;
2892;SDS011;1456;51.840;12.184;2022-08-07T00:15:44;0.80;;;0.80;;
2892;SDS011;1456;51.840;12.184;2022-08-07T00:18:10;1.03;;;1.03;;
2892;SDS011;1456;51.840;12.184;2022-08-07T00:20:37;1.17;;;1.17;;
2892;SDS011;1456;51.840;12.184;2022-08-07T00:23:03;0.90;;;0.90;;
2892;SDS011;1456;51.840;12.184;2022-08-07T00:25:32;1.00;;;1.00;;
2892;SDS011;1456;51.840;12.184;2022-08-07T00:27:59;0.80;;;0.80;;
2892;SDS011;1456;51.840;12.184;2022-08-07T00:30:24;0.80;;;0.80;;
2892;SDS011;1456;51.840;12.184;2022-08-07T00:32:50;0.70;;;0.70;;
2892;SDS011;1456;51.840;12.184;2022-08-07T00:35:17;0.70;;;0.70;;
2892;SDS011;1456;51.840;12.184;2022-08-07T00:37:43;0.70;;;0.70;;
2892;SDS011;1456;51.840;12.184;2022-08-07T00:40:09;0.87;;;0.87;;
2892;SDS011;1456;51.840;12.184;2022-08-07T00:42:35;0.60;;;0.60;;
2892;SDS011;1456;51.840;12.184;2022-08-07T00:45:01;0.70;;;0.70;;
2892;SDS011;1456;51.840;12.184;2022-08-07T00:47:30;0.80;;;0.80;;
2892;SDS011;1456;51.840;12.184;2022-08-07T00:49:55;1.77;;;0.83;;
2892;SDS011;1456;51.840;12.184;2022-08-07T00:52:21;0.80;;;0.80;;
2892;SDS011;1456;51.840;12.184;2022-08-07T00:54:47;0.83;;;0.83;;
2892;SDS011;1456;51.840;12.184;2022-08-07T00:57:14;0.60;;;0.60;;
2892;SDS011;1456;51.840;12.184;2022-08-07T00:59:43;0.73;;;0.73;;
2892;SDS011;1456;51.840;12.184;2022-08-07T01:02:10;0.70;;;0.70;;
2892;SDS011;1456;51.840;12.184;2022-08-07T01:04:36;0.77;;;0.77;;
2892;SDS011;1456;51.840;12.184;2022-08-07T01:07:03;1.03;;;0.90;;
2892;SDS011;1456;51.840;12.184;2022-08-07T01:09:30;0.60;;;0.60;;
2892;SDS011;1456;51.840;12.184;2022-08-07T01:11:56;0.53;;;0.53;;
2892;SDS011;1456;51.840;12.184;2022-08-07T01:14:22;0.70;;;0.70;;
2892;SDS011;1456;51.840;12.184;2022-08-07T01:16:49;0.50;;;0.50;;
2892;SDS011;1456;51.840;12.184;2022-08-07T01:19:19;0.77;;;0.77;;
2892;SDS011;1456;51.840;12.184;2022-08-07T01:21:47;0.93;;;0.93;;
2892;SDS011;1456;51.840;12.184;2022-08-07T01:24:14;0.70;;;0.60;;
2892;SDS011;1456;51.840;12.184;2022-08-07T01:26:41;0.67;;;0.67;;
2892;SDS011;1456;51.840;12.184;2022-08-07T01:29:07;0.50;;;0.50;;
2892;SDS011;1456;51.840;12.184;2022-08-07T01:31:33;0.87;;;0.87;;
2892;SDS011;1456;51.840;12.184;2022-08-07T01:33:59;0.60;;;0.60;;
2892;SDS011;1456;51.840;12.184;2022-08-07T01:36:26;0.77;;;0.77;;
2892;SDS011;1456;51.840;12.184;2022-08-07T01:38:54;0.67;;;0.67;;
2892;SDS011;1456;51.840;12.184;2022-08-07T01:41:21;0.50;;;0.50;;
2892;SDS011;1456;51.840;12.184;2022-08-07T01:43:49;0.63;;;0.60;;
2892;SDS011;1456;51.840;12.184;2022-08-07T01:46:15;0.60;;;0.60;;
2892;SDS011;1456;51.840;12.184;2022-08-07T01:48:44;0.53;;;0.53;;
2892;SDS011;1456;51.840;12.184;2022-08-07T01:51:21;0.50;;;0.50;;
2892;SDS011;1456;51.840;12.184;2022-08-07T01:53:49;0.40;;;0.40;;
2892;SDS011;1456;51.840;12.184;2022-08-07T01:59:40;0.47;;;0.47;;
2892;SDS011;1456;51.840;12.184;2022-08-07T02:01:53;0.50;;;0.50;;
2892;SDS011;1456;51.840;12.184;2022-08-07T02:04:29;0.40;;;0.40;;
2892;SDS011;1456;51.840;12.184;2022-08-07T02:07:02;0.70;;;0.70;;
2892;SDS011;1456;51.840;12.184;2022-08-07T02:09:30;0.60;;;0.60;;
2892;SDS011;1456;51.840;12.184;2022-08-07T02:11:57;0.43;;;0.43;;
2892;SDS011;1456;51.840;12.184;2022-08-07T02:14:40;0.40;;;0.40;;
2892;SDS011;1456;51.840;12.184;2022-08-07T02:17:09;0.80;;;0.80;;
2892;SDS011;1456;51.840;12.184;2022-08-07T02:19:40;1.03;;;0.53;;
2892;SDS011;1456;51.840;12.184;2022-08-07T02:22:08;0.40;;;0.40;;
2892;SDS011;1456;51.840;12.184;2022-08-07T02:24:36;0.40;;;0.40;;
2892;SDS011;1456;51.840;12.184;2022-08-07T02:27:03;0.50;;;0.50;;
2892;SDS011;1456;51.840;12.184;2022-08-07T02:29:30;0.70;;;0.70;;
2892;SDS011;1456;51.840;12.184;2022-08-07T02:31:57;0.60;;;0.53;;
2892;SDS011;1456;51.840;12.184;2022-08-07T02:34:25;0.50;;;0.50;;
2892;SDS011;1456;51.840;12.184;2022-08-07T02:36:52;0.40;;;0.40;;
2892;SDS011;1456;51.840;12.184;2022-08-07T02:39:18;0.47;;;0.47;;
2892;SDS011;1456;51.840;12.184;2022-08-07T02:41:45;0.70;;;0.50;;
2892;SDS011;1456;51.840;12.184;2022-08-07T02:44:12;0.40;;;0.40;;
2892;SDS011;1456;51.840;12.184;2022-08-07T02:46:39;0.50;;;0.50;;
2892;SDS011;1456;51.840;12.184;2022-08-07T02:49:06;0.40;;;0.40;;
2892;SDS011;1456;51.840;12.184;2022-08-07T02:51:32;0.50;;;0.50;;
2892;SDS011;1456;51.840;12.184;2022-08-07T02:54:00;0.40;;;0.40;;
2892;SDS011;1456;51.840;12.184;2022-08-07T02:56:28;0.70;;;0.70;;
2892;SDS011;1456;51.840;12.184;2022-08-07T02:58:57;0.60;;;0.60;;
2892;SDS011;1456;51.840;12.184;2022-08-07T03:01:28;0.60;;;0.60;;
2892;SDS011;1456;51.840;12.184;2022-08-07T03:03:55;0.40;;;0.40;;
2892;SDS011;1456;51.840;12.184;2022-08-07T03:06:22;0.80;;;0.80;;
2892;SDS011;1456;51.840;12.184;2022-08-07T03:08:51;0.83;;;0.83;;
2892;SDS011;1456;51.840;12.184;2022-08-07T03:11:17;0.50;;;0.50;;
2892;SDS011;1456;51.840;12.184;2022-08-07T03:13:43;0.97;;;0.60;;
2892;SDS011;1456;51.840;12.184;2022-08-07T03:16:09;0.40;;;0.40;;
2892;SDS011;1456;51.840;12.184;2022-08-07T03:18:36;2.40;;;0.73;;
2892;SDS011;1456;51.840;12.184;2022-08-07T03:21:03;0.80;;;0.60;;
2892;SDS011;1456;51.840;12.184;2022-08-07T03:23:30;0.40;;;0.40;;
2892;SDS011;1456;51.840;12.184;2022-08-07T03:25:57;1.90;;;1.60;;
2892;SDS011;1456;51.840;12.184;2022-08-07T03:28:25;0.40;;;0.40;;
2892;SDS011;1456;51.840;12.184;2022-08-07T03:30:53;0.50;;;0.50;;
2892;SDS011;1456;51.840;12.184;2022-08-07T03:33:40;0.83;;;0.67;;
2892;SDS011;1456;51.840;12.184;2022-08-07T03:36:08;0.37;;;0.37;;
2892;SDS011;1456;51.840;12.184;2022-08-07T03:38:35;0.67;;;0.50;;
2892;SDS011;1456;51.840;12.184;2022-08-07T03:41:03;0.43;;;0.43;;
2892;SDS011;1456;51.840;12.184;2022-08-07T03:43:29;0.80;;;0.50;;
2892;SDS011;1456;51.840;12.184;2022-08-07T03:45:55;0.60;;;0.60;;
2892;SDS011;1456;51.840;12.184;2022-08-07T03:48:21;0.50;;;0.50;;
2892;SDS011;1456;51.840;12.184;2022-08-07T03:50:47;0.90;;;0.50;;
2892;SDS011;1456;51.840;12.184;2022-08-07T03:53:13;0.40;;;0.40;;
2892;SDS011;1456;51.840;12.184;2022-08-07T03:55:41;0.50;;;0.50;;
2892;SDS011;1456;51.840;12.184;2022-08-07T03:58:07;0.80;;;0.80;;
2892;SDS011;1456;51.840;12.184;2022-08-07T04:00:33;0.70;;;0.70;;
2892;SDS011;1456;51.840;12.184;2022-08-07T04:03:00;0.63;;;0.63;;
2892;SDS011;1456;51.840;12.184;2022-08-07T04:05:26;6.57;;;0.50;;
2892;SDS011;1456;51.840;12.184;2022-08-07T04:07:52;0.60;;;0.60;;
2892;SDS011;1456;51.840;12.184;2022-08-07T04:10:18;0.40;;;0.40;;
2892;SDS011;1456;51.840;12.184;2022-08-07T04:12:44;0.30;;;0.30;;
2892;SDS011;1456;51.840;12.184;2022-08-07T04:15:12;0.30;;;0.30;;
2892;SDS011;1456;51.840;12.184;2022-08-07T04:17:41;0.33;;;0.33;;
2892;SDS011;1456;51.840;12.184;2022-08-07T04:20:11;0.50;;;0.50;;
2892;SDS011;1456;51.840;12.184;2022-08-07T04:22:41;0.40;;;0.40;;
2892;SDS011;1456;51.840;12.184;2022-08-07T04:25:07;0.70;;;0.70;;
2892;SDS011;1456;51.840;12.184;2022-08-07T04:27:33;1.67;;;1.67;;
2892;SDS011;1456;51.840;12.184;2022-08-07T04:30:00;0.60;;;0.60;;
2892;SDS011;1456;51.840;12.184;2022-08-07T04:32:26;0.30;;;0.30;;
2892;SDS011;1456;51.840;12.184;2022-08-07T04:34:52;0.40;;;0.40;;
2892;SDS011;1456;51.840;12.184;2022-08-07T04:37:19;1.03;;;0.60;;
2892;SDS011;1456;51.840;12.184;2022-08-07T04:39:46;0.57;;;0.57;;
2892;SDS011;1456;51.840;12.184;2022-08-07T04:42:11;0.30;;;0.30;;
2892;SDS011;1456;51.840;12.184;2022-08-07T04:44:37;0.60;;;0.60;;
2892;SDS011;1456;51.840;12.184;2022-08-07T04:47:06;0.73;;;0.73;;
2892;SDS011;1456;51.840;12.184;2022-08-07T04:49:48;0.40;;;0.40;;
2892;SDS011;1456;51.840;12.184;2022-08-07T04:55:17;0.97;;;0.60;;
2892;SDS011;1456;51.840;12.184;2022-08-07T05:03:28;0.50;;;0.40;;
2892;SDS011;1456;51.840;12.184;2022-08-07T05:09:09;0.40;;;0.40;;
2892;SDS011;1456;51.840;12.184;2022-08-07T05:11:47;0.40;;;0.40;;
2892;SDS011;1456;51.840;12.184;2022-08-07T05:14:19;1.17;;;1.07;;
2892;SDS011;1456;51.840;12.184;2022-08-07T05:16:51;0.70;;;0.70;;
2892;SDS011;1456;51.840;12.184;2022-08-07T05:19:20;0.93;;;0.93;;
2892;SDS011;1456;51.840;12.184;2022-08-07T05:21:51;0.30;;;0.30;;
2892;SDS011;1456;51.840;12.184;2022-08-07T05:24:19;0.70;;;0.70;;
2892;SDS011;1456;51.840;12.184;2022-08-07T05:26:47;0.50;;;0.50;;
2892;SDS011;1456;51.840;12.184;2022-08-07T05:29:17;0.60;;;0.50;;
2892;SDS011;1456;51.840;12.184;2022-08-07T05:31:45;0.57;;;0.57;;
2892;SDS011;1456;51.840;12.184;2022-08-07T05:34:12;0.60;;;0.60;;
2892;SDS011;1456;51.840;12.184;2022-08-07T05:36:45;0.90;;;0.90;;
2892;SDS011;1456;51.840;12.184;2022-08-07T05:39:12;1.07;;;1.07;;
2892;SDS011;1456;51.840;12.184;2022-08-07T05:41:40;1.23;;;1.23;;
2892;SDS011;1456;51.840;12.184;2022-08-07T05:44:07;0.60;;;0.60;;
2892;SDS011;1456;51.840;12.184;2022-08-07T05:46:33;1.63;;;1.53;;
2892;SDS011;1456;51.840;12.184;2022-08-07T05:49:01;0.50;;;0.50;;
2892;SDS011;1456;51.840;12.184;2022-08-07T05:51:30;1.03;;;1.00;;
2892;SDS011;1456;51.840;12.184;2022-08-07T05:53:56;1.37;;;1.27;;
2892;SDS011;1456;51.840;12.184;2022-08-07T05:56:21;0.90;;;0.90;;
2892;SDS011;1456;51.840;12.184;2022-08-07T05:58:48;0.87;;;0.87;;
2892;SDS011;1456;51.840;12.184;2022-08-07T06:01:14;1.00;;;1.00;;
2892;SDS011;1456;51.840;12.184;2022-08-07T06:03:48;1.20;;;1.20;;
2892;SDS011;1456;51.840;12.184;2022-08-07T06:06:16;1.20;;;1.20;;
2892;SDS011;1456;51.840;12.184;2022-08-07T06:08:44;1.80;;;1.80;;
2892;SDS011;1456;51.840;12.184;2022-08-07T06:11:10;2.77;;;2.70;;
2892;SDS011;1456;51.840;12.184;2022-08-07T06:13:37;1.00;;;1.00;;
2892;SDS011;1456;51.840;12.184;2022-08-07T06:16:05;1.67;;;1.67;;
2892;SDS011;1456;51.840;12.184;2022-08-07T06:18:32;1.00;;;1.00;;
2892;SDS011;1456;51.840;12.184;2022-08-07T06:20:59;1.50;;;1.50;;
2892;SDS011;1456;51.840;12.184;2022-08-07T06:23:25;1.20;;;1.20;;
2892;SDS011;1456;51.840;12.184;2022-08-07T06:25:53;1.40;;;1.40;;
2892;SDS011;1456;51.840;12.184;2022-08-07T06:28:19;1.80;;;1.80;;
2892;SDS011;1456;51.840;12.184;2022-08-07T06:30:45;1.30;;;1.30;;
2892;SDS011;1456;51.840;12.184;2022-08-07T06:33:10;1.20;;;1.20;;
2892;SDS011;1456;51.840;12.184;2022-08-07T06:35:36;1.47;;;1.47;;
2892;SDS011;1456;51.840;12.184;2022-08-07T06:38:02;2.07;;;2.07;;
2892;SDS011;1456;51.840;12.184;2022-08-07T06:40:29;2.10;;;2.10;;
2892;SDS011;1456;51.840;12.184;2022-08-07T06:42:58;3.60;;;3.50;;
2892;SDS011;1456;51.840;12.184;2022-08-07T06:45:26;3.77;;;3.50;;
2892;SDS011;1456;51.840;12.184;2022-08-07T06:47:54;2.20;;;2.20;;
2892;SDS011;1456;51.840;12.184;2022-08-07T06:50:20;3.60;;;3.60;;
2892;SDS011;1456;51.840;12.184;2022-08-07T06:52:47;4.73;;;4.73;;
2892;SDS011;1456;51.840;12.184;2022-08-07T06:55:18;4.30;;;4.30;;
2892;SDS011;1456;51.840;12.184;2022-08-07T06:57:50;3.70;;;3.70;;
2892;SDS011;1456;51.840;12.184;2022-08-07T07:00:17;4.63;;;4.63;;
2892;SDS011;1456;51.840;12.184;2022-08-07T07:02:44;4.67;;;4.67;;
2892;SDS011;1456;51.840;12.184;2022-08-07T07:05:11;3.80;;;3.70;;
2892;SDS011;1456;51.840;12.184;2022-08-07T07:07:37;4.50;;;4.50;;
2892;SDS011;1456;51.840;12.184;2022-08-07T07:10:03;4.67;;;4.60;;
2892;SDS011;1456;51.840;12.184;2022-08-07T07:12:34;5.07;;;4.77;;
2892;SDS011;1456;51.840;12.184;2022-08-07T07:15:13;4.30;;;4.30;;
2892;SDS011;1456;51.840;12.184;2022-08-07T07:17:51;4.27;;;4.27;;
2892;SDS011;1456;51.840;12.184;2022-08-07T07:20:33;4.60;;;4.50;;
2892;SDS011;1456;51.840;12.184;2022-08-07T07:23:02;4.30;;;4.30;;
2892;SDS011;1456;51.840;12.184;2022-08-07T07:25:33;4.73;;;4.63;;
2892;SDS011;1456;51.840;12.184;2022-08-07T07:30:45;4.47;;;4.47;;
2892;SDS011;1456;51.840;12.184;2022-08-07T07:33:29;3.90;;;3.90;;
2892;SDS011;1456;51.840;12.184;2022-08-07T07:35:57;5.07;;;5.00;;
2892;SDS011;1456;51.840;12.184;2022-08-07T07:38:25;5.00;;;5.00;;
2892;SDS011;1456;51.840;12.184;2022-08-07T07:40:53;5.60;;;5.50;;
2892;SDS011;1456;51.840;12.184;2022-08-07T07:43:21;9.50;;;5.33;;
2892;SDS011;1456;51.840;12.184;2022-08-07T07:45:49;5.50;;;5.30;;
2892;SDS011;1456;51.840;12.184;2022-08-07T07:48:18;4.53;;;4.50;;
2892;SDS011;1456;51.840;12.184;2022-08-07T07:50:47;4.90;;;4.90;;
2892;SDS011;1456;51.840;12.184;2022-08-07T07:53:15;5.10;;;5.10;;
2892;SDS011;1456;51.840;12.184;2022-08-07T07:55:43;6.00;;;6.00;;
2892;SDS011;1456;51.840;12.184;2022-08-07T07:58:09;6.10;;;6.00;;
2892;SDS011;1456;51.840;12.184;2022-08-07T08:00:35;6.47;;;6.30;;
2892;SDS011;1456;51.840;12.184;2022-08-07T08:03:04;6.47;;;6.47;;
2892;SDS011;1456;51.840;12.184;2022-08-07T08:05:38;5.87;;;5.80;;
2892;SDS011;1456;51.840;12.184;2022-08-07T08:08:05;6.10;;;6.10;;
2892;SDS011;1456;51.840;12.184;2022-08-07T08:10:34;6.37;;;6.27;;
2892;SDS011;1456;51.840;12.184;2022-08-07T08:13:00;7.03;;;6.93;;
2892;SDS011;1456;51.840;12.184;2022-08-07T08:15:27;6.50;;;6.50;;
2892;SDS011;1456;51.840;12.184;2022-08-07T08:17:57;6.80;;;6.70;;
2892;SDS011;1456;51.840;12.184;2022-08-07T08:20:24;6.10;;;6.10;;
2892;SDS011;1456;51.840;12.184;2022-08-07T08:22:55;7.00;;;6.80;;
2892;SDS011;1456;51.840;12.184;2022-08-07T08:25:40;6.73;;;6.63;;
2892;SDS011;1456;51.840;12.184;2022-08-07T08:28:27;7.30;;;7.20;;
2892;SDS011;1456;51.840;12.184;2022-08-07T08:30:58;6.73;;;6.63;;
2892;SDS011;1456;51.840;12.184;2022-08-07T08:33:29;7.97;;;7.63;;
2892;SDS011;1456;51.840;12.184;2022-08-07T08:35:57;6.90;;;6.80;;
2892;SDS011;1456;51.840;12.184;2022-08-07T08:38:24;6.50;;;6.40;;
2892;SDS011;1456;51.840;12.184;2022-08-07T08:40:57;7.10;;;7.00;;
2892;SDS011;1456;51.840;12.184;2022-08-07T08:43:53;7.33;;;7.23;;
2892;SDS011;1456;51.840;12.184;2022-08-07T08:49:01;7.57;;;7.47;;
2892;SDS011;1456;51.840;12.184;2022-08-07T08:51:38;7.87;;;7.77;;
2892;SDS011;1456;51.840;12.184;2022-08-07T08:54:10;8.10;;;8.00;;
2892;SDS011;1456;51.840;12.184;2022-08-07T08:56:46;8.10;;;8.00;;
2892;SDS011;1456;51.840;12.184;2022-08-07T08:59:33;7.27;;;7.17;;
2892;SDS011;1456;51.840;12.184;2022-08-07T09:02:28;7.60;;;7.50;;
2892;SDS011;1456;51.840;12.184;2022-08-07T09:05:37;7.60;;;7.40;;
2892;SDS011;1456;51.840;12.184;2022-08-07T09:08:31;6.83;;;6.73;;
2892;SDS011;1456;51.840;12.184;2022-08-07T09:14:09;7.60;;;7.50;;
2892;SDS011;1456;51.840;12.184;2022-08-07T09:25:39;7.47;;;7.37;;
2892;SDS011;1456;51.840;12.184;2022-08-07T09:28:30;7.50;;;7.40;;
2892;SDS011;1456;51.840;12.184;2022-08-07T09:31:29;8.00;;;7.90;;
2892;SDS011;1456;51.840;12.184;2022-08-07T09:36:38;9.17;;;8.87;;
2892;SDS011;1456;51.840;12.184;2022-08-07T09:53:01;7.93;;;7.83;;
2892;SDS011;1456;51.840;12.184;2022-08-07T10:01:10;9.00;;;8.90;;
2892;SDS011;1456;51.840;12.184;2022-08-07T10:04:08;8.40;;;8.30;;
2892;SDS011;1456;51.840;12.184;2022-08-07T10:21:09;9.70;;;9.60;;
2892;SDS011;1456;51.840;12.184;2022-08-07T10:45:54;9.60;;;9.50;;
2892;SDS011;1456;51.840;12.184;2022-08-07T10:48:35;9.90;;;9.80;;
2892;SDS011;1456;51.840;12.184;2022-08-07T10:54:40;9.60;;;9.50;;
2892;SDS011;1456;51.840;12.184;2022-08-07T11:05:13;7.60;;;7.50;;
2892;SDS011;1456;51.840;12.184;2022-08-07T11:10:34;7.90;;;7.80;;
2892;SDS011;1456;51.840;12.184;2022-08-07T11:13:29;7.50;;;7.40;;
2892;SDS011;1456;51.840;12.184;2022-08-07T11:15:51;7.50;;;7.40;;
2892;SDS011;1456;51.840;12.184;2022-08-07T11:24:17;7.90;;;7.80;;
2892;SDS011;1456;51.840;12.184;2022-08-07T11:26:48;9.23;;;9.13;;
2892;SDS011;1456;51.840;12.184;2022-08-07T11:41:12;10.03;;;9.93;;
2892;SDS011;1456;51.840;12.184;2022-08-07T11:43:17;10.10;;;9.90;;
2892;SDS011;1456;51.840;12.184;2022-08-07T11:46:33;9.63;;;9.53;;
2892;SDS011;1456;51.840;12.184;2022-08-07T11:56:46;9.57;;;9.47;;
2892;SDS011;1456;51.840;12.184;2022-08-07T11:59:33;8.70;;;8.60;;
2892;SDS011;1456;51.840;12.184;2022-08-07T12:05:18;9.43;;;9.33;;
2892;SDS011;1456;51.840;12.184;2022-08-07T12:07:50;10.33;;;9.57;;
2892;SDS011;1456;51.840;12.184;2022-08-07T12:10:34;10.00;;;9.90;;
2892;SDS011;1456;51.840;12.184;2022-08-07T12:15:46;9.53;;;9.43;;
2892;SDS011;1456;51.840;12.184;2022-08-07T12:34:23;9.80;;;9.70;;
2892;SDS011;1456;51.840;12.184;2022-08-07T12:36:53;9.50;;;9.40;;
2892;SDS011;1456;51.840;12.184;2022-08-07T12:39:20;9.50;;;9.40;;
2892;SDS011;1456;51.840;12.184;2022-08-07T12:41:47;9.50;;;9.40;;
2892;SDS011;1456;51.840;12.184;2022-08-07T12:44:15;10.00;;;9.90;;
2892;SDS011;1456;51.840;12.184;2022-08-07T12:50:01;9.50;;;9.40;;
2892;SDS011;1456;51.840;12.184;2022-08-07T12:52:35;9.80;;;9.70;;
2892;SDS011;1456;51.840;12.184;2022-08-07T12:55:03;9.93;;;9.83;;
2892;SDS011;1456;51.840;12.184;2022-08-07T12:57:38;9.60;;;9.50;;
2892;SDS011;1456;51.840;12.184;2022-08-07T13:00:07;9.37;;;9.27;;
2892;SDS011;1456;51.840;12.184;2022-08-07T13:02:49;9.80;;;9.70;;
2892;SDS011;1456;51.840;12.184;2022-08-07T13:05:40;9.53;;;9.43;;
2892;SDS011;1456;51.840;12.184;2022-08-07T13:11:46;10.30;;;10.10;;
2892;SDS011;1456;51.840;12.184;2022-08-07T13:14:08;10.73;;;10.43;;
2892;SDS011;1456;51.840;12.184;2022-08-07T13:23:48;9.83;;;9.73;;
2892;SDS011;1456;51.840;12.184;2022-08-07T13:28:37;10.50;;;10.40;;
2892;SDS011;1456;51.840;12.184;2022-08-07T13:31:23;10.63;;;10.43;;
2892;SDS011;1456;51.840;12.184;2022-08-07T13:33:58;10.53;;;10.43;;
2892;SDS011;1456;51.840;12.184;2022-08-07T13:36:39;10.30;;;10.20;;
2892;SDS011;1456;51.840;12.184;2022-08-07T13:41:53;10.13;;;10.03;;
2892;SDS011;1456;51.840;12.184;2022-08-07T13:44:21;10.30;;;10.20;;
2892;SDS011;1456;51.840;12.184;2022-08-07T13:46:55;9.53;;;9.43;;
2892;SDS011;1456;51.840;12.184;2022-08-07T13:49:23;8.60;;;8.50;;
2892;SDS011;1456;51.840;12.184;2022-08-07T13:51:52;9.40;;;9.30;;
2892;SDS011;1456;51.840;12.184;2022-08-07T13:54:21;9.83;;;9.73;;
2892;SDS011;1456;51.840;12.184;2022-08-07T13:56:54;9.80;;;9.70;;
2892;SDS011;1456;51.840;12.184;2022-08-07T13:59:27;9.77;;;9.67;;
2892;SDS011;1456;51.840;12.184;2022-08-07T14:02:03;9.60;;;9.50;;
2892;SDS011;1456;51.840;12.184;2022-08-07T14:04:37;10.23;;;10.13;;
2892;SDS011;1456;51.840;12.184;2022-08-07T14:07:14;10.60;;;10.50;;
2892;SDS011;1456;51.840;12.184;2022-08-07T14:09:41;10.87;;;10.67;;
2892;SDS011;1456;51.840;12.184;2022-08-07T14:12:53;10.40;;;10.30;;
2892;SDS011;1456;51.840;12.184;2022-08-07T14:18:13;11.77;;;11.57;;
2892;SDS011;1456;51.840;12.184;2022-08-07T14:20:43;10.40;;;10.30;;
2892;SDS011;1456;51.840;12.184;2022-08-07T14:26:00;21.70;;;21.27;;
2892;SDS011;1456;51.840;12.184;2022-08-07T14:28:32;22.27;;;21.77;;
2892;SDS011;1456;51.840;12.184;2022-08-07T14:31:01;23.47;;;22.90;;
2892;SDS011;1456;51.840;12.184;2022-08-07T14:33:30;21.60;;;21.10;;
2892;SDS011;1456;51.840;12.184;2022-08-07T14:35:58;21.07;;;20.67;;
2892;SDS011;1456;51.840;12.184;2022-08-07T14:38:26;21.60;;;21.10;;
2892;SDS011;1456;51.840;12.184;2022-08-07T14:40:55;20.63;;;20.23;;
2892;SDS011;1456;51.840;12.184;2022-08-07T14:43:22;20.17;;;19.77;;
2892;SDS011;1456;51.840;12.184;2022-08-07T14:45:52;19.93;;;19.50;;
2892;SDS011;1456;51.840;12.184;2022-08-07T14:48:21;20.47;;;20.07;;
2892;SDS011;1456;51.840;12.184;2022-08-07T14:50:53;21.20;;;20.80;;
2892;SDS011;1456;51.840;12.184;2022-08-07T14:53:23;19.87;;;19.47;;
2892;SDS011;1456;51.840;12.184;2022-08-07T14:55:51;20.33;;;19.93;;
2892;SDS011;1456;51.840;12.184;2022-08-07T14:58:20;21.73;;;21.33;;
2892;SDS011;1456;51.840;12.184;2022-08-07T15:00:50;20.77;;;20.37;;
2892;SDS011;1456;51.840;12.184;2022-08-07T15:03:22;20.90;;;20.50;;
2892;SDS011;1456;51.840;12.184;2022-08-07T15:05:50;22.43;;;21.93;;
2892;SDS011;1456;51.840;12.184;2022-08-07T15:08:21;16.83;;;16.53;;
2892;SDS011;1456;51.840;12.184;2022-08-07T15:10:54;17.83;;;17.53;;
2892;SDS011;1456;51.840;12.184;2022-08-07T15:13:25;19.17;;;18.77;;
2892;SDS011;1456;51.840;12.184;2022-08-07T15:15:59;15.37;;;15.07;;
2892;SDS011;1456;51.840;12.184;2022-08-07T15:21:23;14.33;;;14.13;;
2892;SDS011;1456;51.840;12.184;2022-08-07T15:23:54;16.13;;;15.83;;
2892;SDS011;1456;51.840;12.184;2022-08-07T15:27:03;16.33;;;16.03;;
2892;SDS011;1456;51.840;12.184;2022-08-07T15:29:30;15.53;;;15.23;;
2892;SDS011;1456;51.840;12.184;2022-08-07T15:32:02;17.50;;;16.90;;
2892;SDS011;1456;51.840;12.184;2022-08-07T15:34:33;16.77;;;16.37;;
2892;SDS011;1456;51.840;12.184;2022-08-07T15:37:01;20.37;;;19.97;;
2892;SDS011;1456;51.840;12.184;2022-08-07T15:39:29;18.63;;;18.30;;
2892;SDS011;1456;51.840;12.184;2022-08-07T15:42:02;17.83;;;17.53;;
2892;SDS011;1456;51.840;12.184;2022-08-07T15:44:41;18.50;;;18.20;;
2892;SDS011;1456;51.840;12.184;2022-08-07T15:47:12;18.43;;;18.07;;
2892;SDS011;1456;51.840;12.184;2022-08-07T15:49:41;18.77;;;18.43;;
2892;SDS011;1456;51.840;12.184;2022-08-07T15:52:10;17.43;;;17.13;;
2892;SDS011;1456;51.840;12.184;2022-08-07T15:54:38;18.80;;;18.40;;
2892;SDS011;1456;51.840;12.184;2022-08-07T15:57:07;18.43;;;18.13;;
2892;SDS011;1456;51.840;12.184;2022-08-07T15:59:36;18.03;;;17.73;;
2892;SDS011;1456;51.840;12.184;2022-08-07T16:02:04;17.10;;;16.80;;
2892;SDS011;1456;51.840;12.184;2022-08-07T16:04:32;19.20;;;18.80;;
2892;SDS011;1456;51.840;12.184;2022-08-07T16:07:00;18.50;;;18.10;;
2892;SDS011;1456;51.840;12.184;2022-08-07T16:09:40;18.77;;;18.40;;
2892;SDS011;1456;51.840;12.184;2022-08-07T16:20:40;20.60;;;20.20;;
2892;SDS011;1456;51.840;12.184;2022-08-07T16:45:16;10.53;;;10.37;;
2892;SDS011;1456;51.840;12.184;2022-08-07T16:51:17;9.57;;;9.47;;
2892;SDS011;1456;51.840;12.184;2022-08-07T16:54:10;10.77;;;10.67;;
2892;SDS011;1456;51.840;12.184;2022-08-07T16:59:25;9.90;;;9.80;;
2892;SDS011;1456;51.840;12.184;2022-08-07T17:02:15;10.98;;;10.80;;
2892;SDS011;1456;51.840;12.184;2022-08-07T17:07:56;9.53;;;9.43;;
2892;SDS011;1456;51.840;12.184;2022-08-07T17:18:37;9.63;;;9.53;;
2892;SDS011;1456;51.840;12.184;2022-08-07T17:21:20;10.55;;;10.45;;
2892;SDS011;1456;51.840;12.184;2022-08-07T17:34:16;10.33;;;10.23;;
2892;SDS011;1456;51.840;12.184;2022-08-07T17:36:44;10.40;;;10.30;;
2892;SDS011;1456;51.840;12.184;2022-08-07T17:39:20;10.07;;;9.97;;
2892;SDS011;1456;51.840;12.184;2022-08-07T17:42:14;10.07;;;9.97;;
2892;SDS011;1456;51.840;12.184;2022-08-07T17:44:59;10.10;;;10.00;;
2892;SDS011;1456;51.840;12.184;2022-08-07T17:47:38;9.80;;;9.70;;
2892;SDS011;1456;51.840;12.184;2022-08-07T17:50:35;9.80;;;9.70;;
2892;SDS011;1456;51.840;12.184;2022-08-07T17:53:19;10.33;;;10.10;;
2892;SDS011;1456;51.840;12.184;2022-08-07T18:01:25;9.85;;;9.75;;
2892;SDS011;1456;51.840;12.184;2022-08-07T18:06:50;10.00;;;9.90;;
2892;SDS011;1456;51.840;12.184;2022-08-07T18:09:24;9.97;;;9.87;;
2892;SDS011;1456;51.840;12.184;2022-08-07T18:12:03;9.33;;;9.23;;
2892;SDS011;1456;51.840;12.184;2022-08-07T18:14:43;10.03;;;9.73;;
2892;SDS011;1456;51.840;12.184;2022-08-07T18:17:31;9.63;;;9.53;;
2892;SDS011;1456;51.840;12.184;2022-08-07T18:20:02;10.20;;;10.10;;
2892;SDS011;1456;51.840;12.184;2022-08-07T18:22:35;10.33;;;10.13;;
2892;SDS011;1456;51.840;12.184;2022-08-07T18:25:04;10.00;;;9.90;;
2892;SDS011;1456;51.840;12.184;2022-08-07T18:27:42;9.37;;;9.27;;
2892;SDS011;1456;51.840;12.184;2022-08-07T18:36:49;9.20;;;9.10;;
2892;SDS011;1456;51.840;12.184;2022-08-07T18:53:14;9.20;;;9.10;;
2892;SDS011;1456;51.840;12.184;2022-08-07T19:07:09;8.40;;;8.30;;
2892;SDS011;1456;51.840;12.184;2022-08-07T19:12:43;8.17;;;8.07;;
2892;SDS011;1456;51.840;12.184;2022-08-07T19:18:18;8.20;;;8.10;;
2892;SDS011;1456;51.840;12.184;2022-08-07T19:23:40;8.20;;;8.10;;
2892;SDS011;1456;51.840;12.184;2022-08-07T19:26:10;8.50;;;8.40;;
2892;SDS011;1456;51.840;12.184;2022-08-07T19:28:41;8.30;;;8.20;;
2892;SDS011;1456;51.840;12.184;2022-08-07T19:31:10;8.80;;;8.70;;
2892;SDS011;1456;51.840;12.184;2022-08-07T19:33:39;8.20;;;8.10;;
2892;SDS011;1456;51.840;12.184;2022-08-07T19:36:10;8.10;;;8.00;;
2892;SDS011;1456;51.840;12.184;2022-08-07T19:38:39;8.37;;;8.17;;
2892;SDS011;1456;51.840;12.184;2022-08-07T19:41:08;7.87;;;7.77;;
2892;SDS011;1456;51.840;12.184;2022-08-07T19:43:36;8.20;;;8.10;;
2892;SDS011;1456;51.840;12.184;2022-08-07T19:46:05;8.03;;;7.93;;
2892;SDS011;1456;51.840;12.184;2022-08-07T19:48:43;9.00;;;8.90;;
2892;SDS011;1456;51.840;12.184;2022-08-07T19:51:14;8.20;;;8.10;;
2892;SDS011;1456;51.840;12.184;2022-08-07T19:53:48;8.50;;;8.40;;
2892;SDS011;1456;51.840;12.184;2022-08-07T19:56:16;8.70;;;8.60;;
2892;SDS011;1456;51.840;12.184;2022-08-07T19:58:43;7.90;;;7.80;;
2892;SDS011;1456;51.840;12.184;2022-08-07T20:01:13;8.60;;;8.37;;
2892;SDS011;1456;51.840;12.184;2022-08-07T20:03:41;7.87;;;7.77;;
2892;SDS011;1456;51.840;12.184;2022-08-07T20:06:09;8.33;;;8.23;;